Observations for PALERMO POINT RAISI, Italy (LICJ)

LICJ 230520Z 21002KT CAVOK 15/07 Q1017  
LICJ 230450Z 16002KT CAVOK 14/07 Q1017  
LICJ 230420Z 17003KT CAVOK 13/09 Q1017  
LICJ 230350Z 19005KT CAVOK 14/11 Q1017  
LICJ 230320Z 19005KT CAVOK 14/11 Q1017  
LICJ 230250Z 19005KT CAVOK 14/11 Q1017  
LICJ 230220Z 18006KT CAVOK 14/11 Q1017  
LICJ 230150Z 18004KT CAVOK 14/12 Q1017  
LICJ 230120Z 23003KT 190V260 CAVOK 15/13 Q1017  
LICJ 230050Z VRB02KT CAVOK 15/11 Q1017  
LICJ 230020Z VRB01KT CAVOK 16/13 Q1017  
LICJ 222350Z 17002KT CAVOK 15/12 Q1017  
LICJ 222320Z VRB02KT CAVOK 16/13 Q1017  
LICJ 222250Z 15003KT CAVOK 15/12 Q1017  
LICJ 222220Z 17003KT CAVOK 15/12 Q1017  
LICJ 222150Z 18004KT CAVOK 16/13 Q1018  
LICJ 222120Z 21002KT CAVOK 16/14 Q1018  
LICJ 222050Z 17003KT CAVOK 16/13 Q1018  
LICJ 222020Z VRB02KT CAVOK 17/15 Q1018  
LICJ 221950Z VRB01KT CAVOK 17/13 Q1017  
LICJ 221920Z VRB01KT CAVOK 18/13 Q1017  
LICJ 221850Z 04004KT CAVOK 18/13 Q1016  
LICJ 221820Z 06004KT CAVOK 18/13 Q1016  
LICJ 221750Z 04006KT CAVOK 19/13 Q1016  
LICJ 221720Z 06006KT CAVOK 19/13 Q1016  
LICJ 221650Z 05007KT CAVOK 19/13 Q1016  
LICJ 221620Z 04007KT CAVOK 19/14 Q1017  
LICJ 221550Z 03006KT CAVOK 19/14 Q1017  
LICJ 221520Z 02008KT 9999 FEW025 19/14 Q1017
LICJ 221450Z 04009KT 9999 FEW025 19/13 Q1017
LICJ 221420Z 04010KT 9999 FEW025 20/13 Q1017
LICJ 221350Z 04011KT 9999 FEW025TCU 20/13 Q1017 
LICJ 221320Z 04011KT 9999 FEW025TCU 20/13 Q1017 
LICJ 221250Z 04012KT 9999 FEW035 19/14 Q1017
LICJ 221220Z 05013KT 9999 FEW035 20/13 Q1017
LICJ 221150Z 04012KT 9999 FEW030 19/13 Q1017
LICJ 221120Z 04010KT 9999 FEW030 20/13 Q1017
LICJ 221050Z 03009KT 9999 FEW030 19/13 Q1017
LICJ 221020Z 03008KT 9999 FEW030 19/14 Q1017
LICJ 220950Z 02007KT CAVOK 19/13 Q1017  
LICJ 220920Z 03007KT CAVOK 19/13 Q1017  
LICJ 220850Z 03006KT CAVOK 19/13 Q1017  
LICJ 220820Z VRB06KT CAVOK 20/11 Q1017  
LICJ 220750Z 23008KT 9999 FEW050 20/08 Q1017
LICJ 220720Z 21009KT 9999 FEW050 21/07 Q1017
LICJ 220650Z 20006KT 150V220 9999 SCT050 21/06 Q1017
LICJ 220620Z 21004KT 190V270 9999 SCT050 20/07 Q1017
LICJ 220550Z 07004KT 040V100 9999 FEW040 18/09 Q1017
LICJ 220520Z 08003KT 350V120 CAVOK 17/09 Q1017  
LICJ 220450Z 14004KT CAVOK 15/07 Q1017